sensor_id;sensor_type;location;lat;lon;timestamp;pressure;altitude;pressure_sealevel;temperature;humidity
74343;BME280;62767;50.300;8.070;2024-01-16T00:02:06;99168.13;;;18.90;36.47
74343;BME280;62767;50.300;8.070;2024-01-16T00:04:33;99161.88;;;18.91;36.38
74343;BME280;62767;50.300;8.070;2024-01-16T00:06:58;99168.81;;;18.92;36.30
74343;BME280;62767;50.300;8.070;2024-01-16T00:09:24;99168.66;;;18.94;36.32
74343;BME280;62767;50.300;8.070;2024-01-16T00:11:49;99178.88;;;18.97;36.41
74343;BME280;62767;50.300;8.070;2024-01-16T00:14:15;99174.59;;;18.96;36.47
74343;BME280;62767;50.300;8.070;2024-01-16T00:16:45;99172.63;;;18.98;36.26
74343;BME280;62767;50.300;8.070;2024-01-16T00:19:11;99179.38;;;19.01;36.28
74343;BME280;62767;50.300;8.070;2024-01-16T00:21:41;99180.19;;;19.01;36.20
74343;BME280;62767;50.300;8.070;2024-01-16T00:24:07;99183.53;;;19.03;36.16
74343;BME280;62767;50.300;8.070;2024-01-16T00:26:33;99189.63;;;19.04;36.19
74343;BME280;62767;50.300;8.070;2024-01-16T00:28:58;99189.63;;;19.04;36.17
74343;BME280;62767;50.300;8.070;2024-01-16T00:31:24;99190.44;;;19.04;36.13
74343;BME280;62767;50.300;8.070;2024-01-16T00:33:49;99192.25;;;19.04;36.13
74343;BME280;62767;50.300;8.070;2024-01-16T00:36:15;99188.13;;;19.01;36.12
74343;BME280;62767;50.300;8.070;2024-01-16T00:38:40;99191.59;;;19.02;36.14
74343;BME280;62767;50.300;8.070;2024-01-16T00:41:06;99197.84;;;19.01;36.11
74343;BME280;62767;50.300;8.070;2024-01-16T00:43:32;99202.47;;;18.99;35.92
74343;BME280;62767;50.300;8.070;2024-01-16T00:45:58;99199.16;;;18.97;35.90
74343;BME280;62767;50.300;8.070;2024-01-16T00:48:24;99202.94;;;18.94;35.91
74343;BME280;62767;50.300;8.070;2024-01-16T00:50:49;99208.22;;;18.94;35.83
74343;BME280;62767;50.300;8.070;2024-01-16T00:53:18;99214.78;;;18.90;36.01
74343;BME280;62767;50.300;8.070;2024-01-16T00:55:44;99206.66;;;18.83;36.15
74343;BME280;62767;50.300;8.070;2024-01-16T00:58:09;99203.88;;;18.77;36.16
74343;BME280;62767;50.300;8.070;2024-01-16T01:00:35;99206.66;;;18.75;36.14
74343;BME280;62767;50.300;8.070;2024-01-16T01:03:05;99208.59;;;18.73;36.25
74343;BME280;62767;50.300;8.070;2024-01-16T01:05:30;99212.22;;;18.72;36.21
74343;BME280;62767;50.300;8.070;2024-01-16T01:07:56;99212.06;;;18.74;36.20
74343;BME280;62767;50.300;8.070;2024-01-16T01:10:22;99217.34;;;18.74;36.21
74343;BME280;62767;50.300;8.070;2024-01-16T01:12:48;99221.50;;;18.76;36.23
74343;BME280;62767;50.300;8.070;2024-01-16T01:15:14;99220.66;;;18.76;36.17
74343;BME280;62767;50.300;8.070;2024-01-16T01:17:40;99227.41;;;18.78;36.13
74343;BME280;62767;50.300;8.070;2024-01-16T01:20:07;99229.06;;;18.79;36.20
74343;BME280;62767;50.300;8.070;2024-01-16T01:22:33;99222.00;;;18.80;35.99
74343;BME280;62767;50.300;8.070;2024-01-16T01:24:59;99218.22;;;18.82;36.14
74343;BME280;62767;50.300;8.070;2024-01-16T01:27:24;99225.94;;;18.84;36.16
74343;BME280;62767;50.300;8.070;2024-01-16T01:29:50;99224.00;;;18.86;36.03
74343;BME280;62767;50.300;8.070;2024-01-16T01:32:15;99225.66;;;18.87;36.07
74343;BME280;62767;50.300;8.070;2024-01-16T01:34:41;99231.56;;;18.89;36.03
74343;BME280;62767;50.300;8.070;2024-01-16T01:37:07;99236.69;;;18.90;35.98
74343;BME280;62767;50.300;8.070;2024-01-16T01:39:33;99227.81;;;18.91;35.93
74343;BME280;62767;50.300;8.070;2024-01-16T01:41:58;99232.94;;;18.93;36.17
74343;BME280;62767;50.300;8.070;2024-01-16T01:44:25;99240.84;;;18.93;35.96
74343;BME280;62767;50.300;8.070;2024-01-16T01:46:51;99231.28;;;18.92;36.00
74343;BME280;62767;50.300;8.070;2024-01-16T01:49:19;99230.44;;;18.91;35.87
74343;BME280;62767;50.300;8.070;2024-01-16T01:51:45;99225.16;;;18.91;35.85
74343;BME280;62767;50.300;8.070;2024-01-16T01:54:11;99227.47;;;18.86;35.89
74343;BME280;62767;50.300;8.070;2024-01-16T01:56:38;99238.16;;;18.85;35.80
74343;BME280;62767;50.300;8.070;2024-01-16T01:59:05;99229.28;;;18.86;35.70
74343;BME280;62767;50.300;8.070;2024-01-16T02:01:34;99239.66;;;18.87;35.68
74343;BME280;62767;50.300;8.070;2024-01-16T02:04:00;99233.03;;;18.83;35.89
74343;BME280;62767;50.300;8.070;2024-01-16T02:06:27;99240.25;;;18.73;35.91
74343;BME280;62767;50.300;8.070;2024-01-16T02:08:53;99244.19;;;18.69;36.04
74343;BME280;62767;50.300;8.070;2024-01-16T02:11:19;99245.47;;;18.65;36.08
74343;BME280;62767;50.300;8.070;2024-01-16T02:13:44;99259.63;;;18.64;36.26
74343;BME280;62767;50.300;8.070;2024-01-16T02:16:20;99251.88;;;18.63;36.21
74343;BME280;62767;50.300;8.070;2024-01-16T02:18:46;99251.88;;;18.63;36.17
74343;BME280;62767;50.300;8.070;2024-01-16T02:21:12;99245.63;;;18.64;35.99
74343;BME280;62767;50.300;8.070;2024-01-16T02:23:40;99256.19;;;18.64;36.08
74343;BME280;62767;50.300;8.070;2024-01-16T02:26:06;99253.38;;;18.65;36.14
74343;BME280;62767;50.300;8.070;2024-01-16T02:28:32;99256.03;;;18.65;36.07
74343;BME280;62767;50.300;8.070;2024-01-16T02:30:57;99256.69;;;18.67;35.98
74343;BME280;62767;50.300;8.070;2024-01-16T02:33:23;99251.25;;;18.69;36.11
74343;BME280;62767;50.300;8.070;2024-01-16T02:35:48;99247.66;;;18.70;36.01
74343;BME280;62767;50.300;8.070;2024-01-16T02:38:14;99251.09;;;18.70;36.08
74343;BME280;62767;50.300;8.070;2024-01-16T02:40:40;99249.13;;;18.72;35.91
74343;BME280;62767;50.300;8.070;2024-01-16T02:43:06;99246.34;;;18.74;35.90
74343;BME280;62767;50.300;8.070;2024-01-16T02:45:31;99252.44;;;18.74;35.98
74343;BME280;62767;50.300;8.070;2024-01-16T02:47:57;99253.94;;;18.77;35.87
74343;BME280;62767;50.300;8.070;2024-01-16T02:50:23;99251.31;;;18.77;35.89
74343;BME280;62767;50.300;8.070;2024-01-16T02:52:48;99251.00;;;18.80;35.93
74343;BME280;62767;50.300;8.070;2024-01-16T02:55:14;99253.47;;;18.81;35.81
74343;BME280;62767;50.300;8.070;2024-01-16T02:57:40;99249.88;;;18.82;35.96
74343;BME280;62767;50.300;8.070;2024-01-16T03:00:06;99248.06;;;18.83;35.88
74343;BME280;62767;50.300;8.070;2024-01-16T03:02:33;99243.56;;;18.83;35.73
74343;BME280;62767;50.300;8.070;2024-01-16T03:04:58;99247.22;;;18.82;35.67
74343;BME280;62767;50.300;8.070;2024-01-16T03:07:24;99240.94;;;18.83;35.71
74343;BME280;62767;50.300;8.070;2024-01-16T03:09:49;99252.78;;;18.79;35.67
74343;BME280;62767;50.300;8.070;2024-01-16T03:12:15;99249.66;;;18.76;35.75
74343;BME280;62767;50.300;8.070;2024-01-16T03:14:41;99254.09;;;18.75;35.68
74343;BME280;62767;50.300;8.070;2024-01-16T03:17:06;99258.84;;;18.72;35.62
74343;BME280;62767;50.300;8.070;2024-01-16T03:19:32;99259.16;;;18.69;35.64
74343;BME280;62767;50.300;8.070;2024-01-16T03:21:57;99266.56;;;18.65;35.82
74343;BME280;62767;50.300;8.070;2024-01-16T03:24:23;99267.69;;;18.63;35.92
74343;BME280;62767;50.300;8.070;2024-01-16T03:26:49;99256.78;;;18.58;36.00
74343;BME280;62767;50.300;8.070;2024-01-16T03:29:14;99259.44;;;18.58;35.93
74343;BME280;62767;50.300;8.070;2024-01-16T03:31:40;99260.41;;;18.57;35.95
74343;BME280;62767;50.300;8.070;2024-01-16T03:34:06;99266.50;;;18.57;36.11
74343;BME280;62767;50.300;8.070;2024-01-16T03:36:34;99265.53;;;18.58;35.93
74343;BME280;62767;50.300;8.070;2024-01-16T03:38:59;99256.66;;;18.59;35.94
74343;BME280;62767;50.300;8.070;2024-01-16T03:41:25;99260.13;;;18.60;35.90
74343;BME280;62767;50.300;8.070;2024-01-16T03:43:50;99263.41;;;18.62;35.93
74343;BME280;62767;50.300;8.070;2024-01-16T03:46:16;99262.41;;;18.63;35.98
74343;BME280;62767;50.300;8.070;2024-01-16T03:48:42;99268.38;;;18.65;35.82
74343;BME280;62767;50.300;8.070;2024-01-16T03:51:07;99273.47;;;18.66;36.15
74343;BME280;62767;50.300;8.070;2024-01-16T03:53:33;99276.78;;;18.68;36.00
74343;BME280;62767;50.300;8.070;2024-01-16T03:55:58;99271.38;;;18.70;35.83
74343;BME280;62767;50.300;8.070;2024-01-16T03:58:24;99273.84;;;18.71;35.72
74343;BME280;62767;50.300;8.070;2024-01-16T04:00:49;99264.94;;;18.72;35.90
74343;BME280;62767;50.300;8.070;2024-01-16T04:03:16;99266.44;;;18.75;35.79
74343;BME280;62767;50.300;8.070;2024-01-16T04:05:42;99275.03;;;18.77;35.69
74343;BME280;62767;50.300;8.070;2024-01-16T04:08:08;99280.13;;;18.78;35.65
74343;BME280;62767;50.300;8.070;2024-01-16T04:10:34;99282.78;;;18.78;35.65
74343;BME280;62767;50.300;8.070;2024-01-16T04:13:03;99277.69;;;18.77;35.57
74343;BME280;62767;50.300;8.070;2024-01-16T04:15:28;99283.78;;;18.77;35.54
74343;BME280;62767;50.300;8.070;2024-01-16T04:17:54;99287.41;;;18.76;35.52
74343;BME280;62767;50.300;8.070;2024-01-16T04:20:20;99280.59;;;18.74;35.52
74343;BME280;62767;50.300;8.070;2024-01-16T04:22:46;99284.41;;;18.71;35.61
74343;BME280;62767;50.300;8.070;2024-01-16T04:25:12;99274.00;;;18.70;35.54
74343;BME280;62767;50.300;8.070;2024-01-16T04:27:38;99277.47;;;18.70;35.46
74343;BME280;62767;50.300;8.070;2024-01-16T04:30:04;99277.63;;;18.69;35.53
74343;BME280;62767;50.300;8.070;2024-01-16T04:32:30;99280.19;;;18.61;35.67
74343;BME280;62767;50.300;8.070;2024-01-16T04:34:55;99285.63;;;18.59;35.69
74343;BME280;62767;50.300;8.070;2024-01-16T04:37:21;99284.56;;;18.52;35.81
74343;BME280;62767;50.300;8.070;2024-01-16T04:39:46;99281.25;;;18.50;35.82
74343;BME280;62767;50.300;8.070;2024-01-16T04:42:12;99288.16;;;18.51;35.97
74343;BME280;62767;50.300;8.070;2024-01-16T04:44:37;99296.22;;;18.49;35.87
74343;BME280;62767;50.300;8.070;2024-01-16T04:47:03;99291.50;;;18.53;35.84
74343;BME280;62767;50.300;8.070;2024-01-16T04:49:28;99293.91;;;18.46;36.04
74343;BME280;62767;50.300;8.070;2024-01-16T04:51:54;99293.09;;;18.46;36.79
74343;BME280;62767;50.300;8.070;2024-01-16T04:54:19;99288.72;;;18.55;37.06
74343;BME280;62767;50.300;8.070;2024-01-16T04:56:45;99290.59;;;18.62;37.17
74343;BME280;62767;50.300;8.070;2024-01-16T04:59:10;99284.41;;;18.71;37.25
74343;BME280;62767;50.300;8.070;2024-01-16T05:01:36;99290.53;;;18.80;36.75
74343;BME280;62767;50.300;8.070;2024-01-16T05:04:02;99286.16;;;18.88;37.28
74343;BME280;62767;50.300;8.070;2024-01-16T05:06:29;99284.22;;;18.99;36.81
74343;BME280;62767;50.300;8.070;2024-01-16T05:08:55;99271.88;;;19.07;36.80
74343;BME280;62767;50.300;8.070;2024-01-16T05:11:21;99275.41;;;19.16;36.64
74343;BME280;62767;50.300;8.070;2024-01-16T05:13:46;99276.25;;;19.24;36.55
74343;BME280;62767;50.300;8.070;2024-01-16T05:16:12;99280.06;;;19.30;36.52
74343;BME280;62767;50.300;8.070;2024-01-16T05:18:41;99283.84;;;19.35;36.62
74343;BME280;62767;50.300;8.070;2024-01-16T05:21:07;99284.38;;;19.39;36.58
74343;BME280;62767;50.300;8.070;2024-01-16T05:23:32;99285.22;;;19.40;36.53
74343;BME280;62767;50.300;8.070;2024-01-16T05:25:58;99274.97;;;19.37;36.55
74343;BME280;62767;50.300;8.070;2024-01-16T05:28:23;99274.31;;;19.34;36.89
74343;BME280;62767;50.300;8.070;2024-01-16T05:30:49;99280.25;;;19.37;36.64
74343;BME280;62767;50.300;8.070;2024-01-16T05:33:14;99273.63;;;19.32;36.98
74343;BME280;62767;50.300;8.070;2024-01-16T05:35:40;99270.03;;;19.33;36.87
74343;BME280;62767;50.300;8.070;2024-01-16T05:38:05;99265.88;;;19.31;36.80
74343;BME280;62767;50.300;8.070;2024-01-16T05:40:32;99274.16;;;19.02;36.02
74343;BME280;62767;50.300;8.070;2024-01-16T05:42:57;99271.00;;;18.65;36.74
74343;BME280;62767;50.300;8.070;2024-01-16T05:45:23;99260.63;;;18.63;37.14
74343;BME280;62767;50.300;8.070;2024-01-16T05:47:48;99265.00;;;18.80;37.09
74343;BME280;62767;50.300;8.070;2024-01-16T05:50:14;99260.13;;;18.93;37.00
74343;BME280;62767;50.300;8.070;2024-01-16T05:52:42;99257.69;;;19.00;36.97
74343;BME280;62767;50.300;8.070;2024-01-16T05:55:08;99256.88;;;19.08;37.04
74343;BME280;62767;50.300;8.070;2024-01-16T05:57:33;99252.63;;;19.15;37.01
74343;BME280;62767;50.300;8.070;2024-01-16T05:59:59;99257.28;;;19.21;37.09
74343;BME280;62767;50.300;8.070;2024-01-16T06:02:31;99253.03;;;19.28;37.15
74343;BME280;62767;50.300;8.070;2024-01-16T06:04:56;99255.03;;;19.34;37.23
74343;BME280;62767;50.300;8.070;2024-01-16T06:07:22;99245.78;;;19.38;37.15
74343;BME280;62767;50.300;8.070;2024-01-16T06:09:47;99240.56;;;19.46;37.32
74343;BME280;62767;50.300;8.070;2024-01-16T06:12:13;99241.75;;;19.52;37.20
74343;BME280;62767;50.300;8.070;2024-01-16T06:14:38;99235.81;;;19.58;37.09
74343;BME280;62767;50.300;8.070;2024-01-16T06:17:04;99240.75;;;19.61;37.00
74343;BME280;62767;50.300;8.070;2024-01-16T06:19:34;99234.97;;;19.65;37.07
74343;BME280;62767;50.300;8.070;2024-01-16T06:21:59;99230.88;;;19.71;36.88
74343;BME280;62767;50.300;8.070;2024-01-16T06:24:26;99234.84;;;19.75;36.95
74343;BME280;62767;50.300;8.070;2024-01-16T06:26:52;99231.19;;;19.76;36.88
74343;BME280;62767;50.300;8.070;2024-01-16T06:29:17;99236.00;;;19.81;36.97
74343;BME280;62767;50.300;8.070;2024-01-16T06:31:43;99238.47;;;19.82;36.88
74343;BME280;62767;50.300;8.070;2024-01-16T06:34:08;99241.09;;;19.82;36.91
74343;BME280;62767;50.300;8.070;2024-01-16T06:36:34;99236.16;;;19.79;37.06
74343;BME280;62767;50.300;8.070;2024-01-16T06:38:59;99236.47;;;19.76;36.59
74343;BME280;62767;50.300;8.070;2024-01-16T06:41:25;99238.13;;;19.77;36.63
74343;BME280;62767;50.300;8.070;2024-01-16T06:43:50;99226.09;;;19.74;36.55
74343;BME280;62767;50.300;8.070;2024-01-16T06:46:16;99225.59;;;19.71;36.38
74343;BME280;62767;50.300;8.070;2024-01-16T06:48:41;99236.97;;;19.63;36.39
74343;BME280;62767;50.300;8.070;2024-01-16T06:51:07;99233.00;;;19.59;36.48
74343;BME280;62767;50.300;8.070;2024-01-16T06:53:34;99238.09;;;19.53;36.36
74343;BME280;62767;50.300;8.070;2024-01-16T06:56:00;99230.66;;;19.48;36.39
74343;BME280;62767;50.300;8.070;2024-01-16T06:58:25;99241.69;;;19.44;36.40
74343;BME280;62767;50.300;8.070;2024-01-16T07:00:51;99245.16;;;19.44;36.47
74343;BME280;62767;50.300;8.070;2024-01-16T07:03:16;99244.66;;;19.41;36.38
74343;BME280;62767;50.300;8.070;2024-01-16T07:05:42;99248.75;;;19.43;36.19
74343;BME280;62767;50.300;8.070;2024-01-16T07:08:09;99241.84;;;19.42;36.16
74343;BME280;62767;50.300;8.070;2024-01-16T07:10:35;99247.09;;;19.42;36.14
74343;BME280;62767;50.300;8.070;2024-01-16T07:13:01;99252.38;;;19.42;36.17
74343;BME280;62767;50.300;8.070;2024-01-16T07:15:27;99250.41;;;19.44;36.11
74343;BME280;62767;50.300;8.070;2024-01-16T07:17:52;99260.16;;;19.44;35.91
74343;BME280;62767;50.300;8.070;2024-01-16T07:20:18;99250.94;;;19.48;35.74
74343;BME280;62767;50.300;8.070;2024-01-16T07:22:43;99257.38;;;19.45;36.00
74343;BME280;62767;50.300;8.070;2024-01-16T07:25:09;99251.41;;;19.43;35.95
74343;BME280;62767;50.300;8.070;2024-01-16T07:27:35;99260.16;;;19.44;35.90
74343;BME280;62767;50.300;8.070;2024-01-16T07:30:01;99257.50;;;19.44;35.85
74343;BME280;62767;50.300;8.070;2024-01-16T07:32:26;99258.34;;;19.44;35.77
74343;BME280;62767;50.300;8.070;2024-01-16T07:34:52;99256.22;;;19.48;35.84
74343;BME280;62767;50.300;8.070;2024-01-16T07:37:18;99264.13;;;19.48;35.84
74343;BME280;62767;50.300;8.070;2024-01-16T07:39:44;99259.84;;;19.47;35.65
74343;BME280;62767;50.300;8.070;2024-01-16T07:42:09;99256.22;;;19.48;35.78
74343;BME280;62767;50.300;8.070;2024-01-16T07:44:36;99257.38;;;19.45;35.78
74343;BME280;62767;50.300;8.070;2024-01-16T07:47:01;99254.75;;;19.45;35.64
74343;BME280;62767;50.300;8.070;2024-01-16T07:49:27;99255.03;;;19.42;35.63
74343;BME280;62767;50.300;8.070;2024-01-16T07:51:53;99261.13;;;19.43;35.60
74343;BME280;62767;50.300;8.070;2024-01-16T07:54:18;99258.00;;;19.39;35.68
74343;BME280;62767;50.300;8.070;2024-01-16T07:56:44;99258.81;;;19.40;35.68
74343;BME280;62767;50.300;8.070;2024-01-16T07:59:09;99269.69;;;19.37;35.66
74343;BME280;62767;50.300;8.070;2024-01-16T08:01:35;99264.75;;;19.33;35.61
74343;BME280;62767;50.300;8.070;2024-01-16T08:04:00;99271.97;;;19.31;35.62
74343;BME280;62767;50.300;8.070;2024-01-16T08:06:26;99269.69;;;19.28;35.49
74343;BME280;62767;50.300;8.070;2024-01-16T08:08:51;99277.91;;;19.25;35.61
74343;BME280;62767;50.300;8.070;2024-01-16T08:11:18;99273.94;;;19.21;35.58
74343;BME280;62767;50.300;8.070;2024-01-16T08:13:44;99275.06;;;19.19;35.58
74343;BME280;62767;50.300;8.070;2024-01-16T08:16:09;99278.97;;;19.07;35.81
74343;BME280;62767;50.300;8.070;2024-01-16T08:18:36;99271.38;;;19.04;36.09
74343;BME280;62767;50.300;8.070;2024-01-16T08:21:01;99284.06;;;19.00;35.98
74343;BME280;62767;50.300;8.070;2024-01-16T08:23:27;99277.97;;;19.00;35.92
74343;BME280;62767;50.300;8.070;2024-01-16T08:25:52;99291.16;;;19.00;35.97
74343;BME280;62767;50.300;8.070;2024-01-16T08:28:18;99280.59;;;19.00;35.93
74343;BME280;62767;50.300;8.070;2024-01-16T08:30:44;99285.88;;;19.00;35.92
74343;BME280;62767;50.300;8.070;2024-01-16T08:33:10;99291.16;;;19.00;35.97
74343;BME280;62767;50.300;8.070;2024-01-16T08:35:35;99291.78;;;19.02;35.90
74343;BME280;62767;50.300;8.070;2024-01-16T08:38:01;99289.84;;;19.04;35.90
74343;BME280;62767;50.300;8.070;2024-01-16T08:40:26;99293.31;;;19.04;35.86
74343;BME280;62767;50.300;8.070;2024-01-16T08:42:52;99284.25;;;19.07;35.83
74343;BME280;62767;50.300;8.070;2024-01-16T08:45:23;99297.13;;;19.10;35.75
74343;BME280;62767;50.300;8.070;2024-01-16T08:47:49;99291.69;;;19.11;35.73
74343;BME280;62767;50.300;8.070;2024-01-16T08:50:15;99287.91;;;19.14;35.56
74343;BME280;62767;50.300;8.070;2024-01-16T08:52:41;99294.00;;;19.14;35.68
74343;BME280;62767;50.300;8.070;2024-01-16T08:55:08;99280.66;;;19.16;35.72
74343;BME280;62767;50.300;8.070;2024-01-16T08:57:37;99279.00;;;19.15;35.67
74343;BME280;62767;50.300;8.070;2024-01-16T09:00:06;99280.66;;;19.16;35.66
74343;BME280;62767;50.300;8.070;2024-01-16T09:02:35;99280.66;;;19.16;35.61
74343;BME280;62767;50.300;8.070;2024-01-16T09:05:00;99274.72;;;19.14;35.56
74343;BME280;62767;50.300;8.070;2024-01-16T09:07:26;99271.25;;;19.13;35.56
74343;BME280;62767;50.300;8.070;2024-01-16T09:09:52;99276.53;;;19.13;35.41
74343;BME280;62767;50.300;8.070;2024-01-16T09:12:17;99276.84;;;19.10;35.48
74343;BME280;62767;50.300;8.070;2024-01-16T09:14:43;99287.69;;;19.07;35.46
74343;BME280;62767;50.300;8.070;2024-01-16T09:17:08;99287.06;;;19.05;35.73
74343;BME280;62767;50.300;8.070;2024-01-16T09:19:34;99296.78;;;19.05;35.54
74343;BME280;62767;50.300;8.070;2024-01-16T09:21:59;99294.63;;;19.00;35.55
74343;BME280;62767;50.300;8.070;2024-01-16T09:24:25;99299.50;;;18.95;35.46
74343;BME280;62767;50.300;8.070;2024-01-16T09:26:50;99304.75;;;18.87;35.78
74343;BME280;62767;50.300;8.070;2024-01-16T09:29:16;99311.97;;;18.85;35.83
74343;BME280;62767;50.300;8.070;2024-01-16T09:31:42;99311.47;;;18.81;35.93
74343;BME280;62767;50.300;8.070;2024-01-16T09:34:07;99319.53;;;18.80;35.91
74343;BME280;62767;50.300;8.070;2024-01-16T09:36:33;99323.97;;;18.79;35.88
74343;BME280;62767;50.300;8.070;2024-01-16T09:39:02;99319.38;;;18.81;35.94
74343;BME280;62767;50.300;8.070;2024-01-16T09:41:28;99323.00;;;18.80;35.95
74343;BME280;62767;50.300;8.070;2024-01-16T09:43:54;99326.31;;;18.82;35.76
74343;BME280;62767;50.300;8.070;2024-01-16T09:46:22;99337.50;;;18.84;35.80
74343;BME280;62767;50.300;8.070;2024-01-16T09:48:50;99333.91;;;18.85;35.78
74343;BME280;62767;50.300;8.070;2024-01-16T09:51:17;99330.97;;;18.88;35.72
74343;BME280;62767;50.300;8.070;2024-01-16T09:53:43;99331.78;;;18.89;35.78
74343;BME280;62767;50.300;8.070;2024-01-16T09:56:16;99328.84;;;18.92;35.75
74343;BME280;62767;50.300;8.070;2024-01-16T09:58:43;99329.66;;;18.92;35.63
74343;BME280;62767;50.300;8.070;2024-01-16T10:01:11;99330.34;;;18.95;35.66
74343;BME280;62767;50.300;8.070;2024-01-16T10:03:38;99333.63;;;18.97;35.62
74343;BME280;62767;50.300;8.070;2024-01-16T10:06:06;99320.47;;;18.97;35.63
74343;BME280;62767;50.300;8.070;2024-01-16T10:08:32;99330.84;;;18.98;35.80
74343;BME280;62767;50.300;8.070;2024-01-16T10:10:58;99328.06;;;19.00;35.53
74343;BME280;62767;50.300;8.070;2024-01-16T10:13:24;99325.44;;;19.00;35.66
74343;BME280;62767;50.300;8.070;2024-01-16T10:15:50;99320.16;;;19.00;35.47
74343;BME280;62767;50.300;8.070;2024-01-16T10:18:25;99318.50;;;18.99;35.48
74343;BME280;62767;50.300;8.070;2024-01-16T10:20:51;99308.94;;;18.98;35.49
74343;BME280;62767;50.300;8.070;2024-01-16T10:23:29;99310.72;;;18.97;35.47
74343;BME280;62767;50.300;8.070;2024-01-16T10:26:10;99303.66;;;18.98;35.29
74343;BME280;62767;50.300;8.070;2024-01-16T10:28:38;99317.16;;;18.95;35.42
74343;BME280;62767;50.300;8.070;2024-01-16T10:31:05;99307.91;;;18.90;35.47
74343;BME280;62767;50.300;8.070;2024-01-16T10:33:31;99298.66;;;18.86;35.38
74343;BME280;62767;50.300;8.070;2024-01-16T10:36:17;99295.66;;;18.81;35.53
74343;BME280;62767;50.300;8.070;2024-01-16T10:38:46;99296.97;;;18.77;35.56
74343;BME280;62767;50.300;8.070;2024-01-16T10:41:16;99294.13;;;18.71;35.71
74343;BME280;62767;50.300;8.070;2024-01-16T10:44:03;99297.03;;;18.68;35.85
74343;BME280;62767;50.300;8.070;2024-01-16T10:46:29;99282.06;;;18.68;35.80
74343;BME280;62767;50.300;8.070;2024-01-16T10:49:04;99293.44;;;18.69;35.80
74343;BME280;62767;50.300;8.070;2024-01-16T10:51:31;99281.91;;;18.70;35.70
74343;BME280;62767;50.300;8.070;2024-01-16T10:54:03;99297.59;;;18.71;35.79
74343;BME280;62767;50.300;8.070;2024-01-16T10:56:31;99288.66;;;18.72;35.80
74343;BME280;62767;50.300;8.070;2024-01-16T10:59:12;99278.81;;;18.74;35.65
74343;BME280;62767;50.300;8.070;2024-01-16T11:01:43;99283.94;;;18.76;35.73
74343;BME280;62767;50.300;8.070;2024-01-16T11:04:09;99279.31;;;18.78;35.69
74343;BME280;62767;50.300;8.070;2024-01-16T11:06:35;99285.25;;;18.80;35.61
74343;BME280;62767;50.300;8.070;2024-01-16T11:09:01;99273.59;;;18.82;35.67
74343;BME280;62767;50.300;8.070;2024-01-16T11:11:28;99268.13;;;18.84;35.63
74343;BME280;62767;50.300;8.070;2024-01-16T11:13:54;99264.38;;;18.86;35.59
74343;BME280;62767;50.300;8.070;2024-01-16T11:16:21;99249.38;;;18.87;35.50
74343;BME280;62767;50.300;8.070;2024-01-16T11:18:48;99258.78;;;18.89;35.57
74343;BME280;62767;50.300;8.070;2024-01-16T11:21:14;99254.31;;;18.90;35.54
74343;BME280;62767;50.300;8.070;2024-01-16T11:23:41;99248.06;;;18.91;35.42
74343;BME280;62767;50.300;8.070;2024-01-16T11:26:29;99246.25;;;18.91;35.46
74343;BME280;62767;50.300;8.070;2024-01-16T11:28:59;99254.19;;;18.91;35.38
74343;BME280;62767;50.300;8.070;2024-01-16T11:33:53;99241.97;;;18.90;35.41
74343;BME280;62767;50.300;8.070;2024-01-16T11:36:42;99235.38;;;18.86;35.39
74343;BME280;62767;50.300;8.070;2024-01-16T11:39:10;99236.06;;;18.88;35.27
74343;BME280;62767;50.300;8.070;2024-01-16T11:41:54;99228.78;;;18.82;35.33
74343;BME280;62767;50.300;8.070;2024-01-16T11:47:22;99224.97;;;18.77;35.37
74343;BME280;62767;50.300;8.070;2024-01-16T11:49:50;99211.72;;;18.69;35.43
74343;BME280;62767;50.300;8.070;2024-01-16T11:52:45;99208.59;;;18.65;35.58
74343;BME280;62767;50.300;8.070;2024-01-16T11:55:31;99205.28;;;18.63;35.60
74343;BME280;62767;50.300;8.070;2024-01-16T12:00:52;99197.50;;;18.62;35.79
74343;BME280;62767;50.300;8.070;2024-01-16T12:03:21;99201.81;;;18.63;35.70
74343;BME280;62767;50.300;8.070;2024-01-16T12:06:00;99202.47;;;18.65;35.68
74343;BME280;62767;50.300;8.070;2024-01-16T12:08:26;99198.03;;;18.65;35.68
74343;BME280;62767;50.300;8.070;2024-01-16T12:10:52;99195.41;;;18.65;35.55
74343;BME280;62767;50.300;8.070;2024-01-16T12:13:18;99200.34;;;18.68;35.65
74343;BME280;62767;50.300;8.070;2024-01-16T12:15:44;99193.28;;;18.69;35.55
74343;BME280;62767;50.300;8.070;2024-01-16T12:18:09;99188.69;;;18.71;35.59
74343;BME280;62767;50.300;8.070;2024-01-16T12:20:36;99185.84;;;18.72;35.48
74343;BME280;62767;50.300;8.070;2024-01-16T12:23:02;99197.09;;;18.74;35.53
74343;BME280;62767;50.300;8.070;2024-01-16T12:25:30;99195.13;;;18.76;35.54
74343;BME280;62767;50.300;8.070;2024-01-16T12:27:56;99191.50;;;18.77;35.57
74343;BME280;62767;50.300;8.070;2024-01-16T12:30:24;99188.69;;;18.79;35.58
74343;BME280;62767;50.300;8.070;2024-01-16T12:32:50;99199.09;;;18.80;35.57
74343;BME280;62767;50.300;8.070;2024-01-16T12:35:22;99195.31;;;18.83;35.42
74343;BME280;62767;50.300;8.070;2024-01-16T12:38:04;99180.31;;;18.83;35.46
74343;BME280;62767;50.300;8.070;2024-01-16T12:40:35;99181.31;;;18.82;35.45
74343;BME280;62767;50.300;8.070;2024-01-16T12:43:04;99179.50;;;18.83;35.43
74343;BME280;62767;50.300;8.070;2024-01-16T12:45:31;99185.44;;;18.85;35.26
74343;BME280;62767;50.300;8.070;2024-01-16T12:47:57;99175.84;;;18.84;35.31
74343;BME280;62767;50.300;8.070;2024-01-16T12:50:24;99165.50;;;18.82;35.24
74343;BME280;62767;50.300;8.070;2024-01-16T12:53:06;99163.16;;;18.79;35.37
74343;BME280;62767;50.300;8.070;2024-01-16T12:55:36;99158.22;;;18.76;35.22
74343;BME280;62767;50.300;8.070;2024-01-16T12:58:22;99149.97;;;18.71;35.28
74343;BME280;62767;50.300;8.070;2024-01-16T13:00:53;99157.88;;;18.71;35.26
74343;BME280;62767;50.300;8.070;2024-01-16T13:03:25;99150.59;;;18.65;35.53
74343;BME280;62767;50.300;8.070;2024-01-16T13:06:00;99142.34;;;18.60;35.55
74343;BME280;62767;50.300;8.070;2024-01-16T13:08:26;99138.88;;;18.60;35.63